createdAt,value
2018-05-06T00:00:36.557Z,0.00
2018-05-06T00:01:36.573Z,0.00
2018-05-06T00:02:36.597Z,0.00
2018-05-06T00:03:36.610Z,0.00
2018-05-06T00:04:36.636Z,0.00
2018-05-06T00:05:36.651Z,0.00
2018-05-06T00:06:36.683Z,0.00
2018-05-06T00:07:36.691Z,0.00
2018-05-06T00:08:36.717Z,0.00
2018-05-06T00:09:36.734Z,0.00
2018-05-06T00:10:36.742Z,0.00
2018-05-06T00:11:36.767Z,0.00
2018-05-06T00:12:36.782Z,0.00
2018-05-06T00:13:36.810Z,0.00
2018-05-06T00:14:36.823Z,0.00
2018-05-06T00:15:36.848Z,0.00
2018-05-06T00:16:36.862Z,0.00
2018-05-06T00:17:36.874Z,0.00
2018-05-06T00:18:36.900Z,0.00
2018-05-06T00:19:36.914Z,0.00
2018-05-06T00:20:36.940Z,0.00
2018-05-06T00:21:36.956Z,0.00
2018-05-06T00:22:36.980Z,0.00
2018-05-06T00:23:36.997Z,0.00
2018-05-06T00:24:37.020Z,0.00
2018-05-06T00:25:37.035Z,0.00
2018-05-06T00:26:37.046Z,0.00
2018-05-06T00:27:37.072Z,0.00
2018-05-06T00:28:37.085Z,0.00
2018-05-06T00:29:37.112Z,0.00
2018-05-06T00:30:37.126Z,0.00
2018-05-06T00:31:37.151Z,0.00
2018-05-06T00:32:37.167Z,0.00
2018-05-06T00:33:37.212Z,0.00
2018-05-06T00:34:37.207Z,0.00
2018-05-06T00:35:37.234Z,0.00
2018-05-06T00:36:37.244Z,0.00
2018-05-06T00:37:37.255Z,0.00
2018-05-06T00:38:37.282Z,0.00
2018-05-06T00:39:37.294Z,0.00
2018-05-06T00:40:37.313Z,0.00
2018-05-06T00:41:37.337Z,0.00
2018-05-06T00:42:37.350Z,0.00
2018-05-06T00:43:37.376Z,0.00
2018-05-06T00:44:37.390Z,0.00
2018-05-06T00:45:37.402Z,0.00
2018-05-06T00:46:37.426Z,0.00
2018-05-06T00:47:37.441Z,0.00
2018-05-06T00:48:37.469Z,0.00
2018-05-06T00:49:37.480Z,0.00
2018-05-06T00:50:37.505Z,0.00
2018-05-06T00:51:37.520Z,0.00
2018-05-06T00:52:37.602Z,0.00
2018-05-06T00:53:37.564Z,0.00
2018-05-06T00:54:37.575Z,0.00
2018-05-06T00:55:37.603Z,0.00
2018-05-06T00:56:37.614Z,0.00
2018-05-06T00:57:37.638Z,0.00
2018-05-06T00:58:37.652Z,0.00
2018-05-06T00:59:37.664Z,0.00
2018-05-06T01:00:37.690Z,0.00
2018-05-06T01:01:37.706Z,0.00
2018-05-06T01:02:37.733Z,0.00
2018-05-06T01:03:37.745Z,0.00
2018-05-06T01:04:37.773Z,0.00
2018-05-06T01:05:37.785Z,0.00
2018-05-06T01:06:37.798Z,0.00
2018-05-06T01:07:37.824Z,0.00
2018-05-06T01:08:37.838Z,0.00
2018-05-06T01:09:37.863Z,0.00
2018-05-06T01:10:37.875Z,0.00
2018-05-06T01:11:37.889Z,0.00
2018-05-06T01:12:37.916Z,0.00
2018-05-06T01:13:37.930Z,0.00
2018-05-06T01:14:37.961Z,0.00
2018-05-06T01:15:37.970Z,0.00
2018-05-06T01:16:37.996Z,0.00
2018-05-06T01:17:38.007Z,0.00
2018-05-06T01:18:38.021Z,0.00
2018-05-06T01:19:38.048Z,0.00
2018-05-06T01:20:38.060Z,0.00
2018-05-06T01:21:38.077Z,0.00
2018-05-06T01:22:38.102Z,0.00
2018-05-06T01:23:38.115Z,0.00
2018-05-06T01:24:38.155Z,0.00
2018-05-06T01:25:38.153Z,0.00
2018-05-06T01:26:38.167Z,0.00
2018-05-06T01:27:38.192Z,0.00
2018-05-06T01:28:38.206Z,0.00
2018-05-06T01:29:38.235Z,0.00
2018-05-06T01:30:38.247Z,0.00
2018-05-06T01:31:38.274Z,0.00
2018-05-06T01:32:38.287Z,0.00
2018-05-06T01:33:38.298Z,0.00
2018-05-06T01:34:38.324Z,0.00
2018-05-06T01:35:38.339Z,0.00
2018-05-06T01:36:38.363Z,0.00
2018-05-06T01:37:38.376Z,0.00
2018-05-06T01:38:38.391Z,0.00
2018-05-06T01:39:38.416Z,0.00
2018-05-06T01:40:38.429Z,0.00
2018-05-06T01:41:38.445Z,0.00
2018-05-06T01:42:38.472Z,0.00
2018-05-06T01:43:38.484Z,0.00
2018-05-06T01:44:38.511Z,0.00
2018-05-06T01:45:38.523Z,0.00
2018-05-06T01:46:38.535Z,0.00
2018-05-06T01:47:38.562Z,0.00
2018-05-06T01:48:38.576Z,0.00
2018-05-06T01:49:38.604Z,0.00
2018-05-06T01:50:38.630Z,0.00
2018-05-06T01:51:38.630Z,0.00
2018-05-06T01:52:38.657Z,0.00
2018-05-06T01:53:38.670Z,0.00
2018-05-06T01:54:38.694Z,0.00
2018-05-06T01:55:38.710Z,0.00
2018-05-06T01:56:38.722Z,0.00
2018-05-06T01:57:38.761Z,0.00
2018-05-06T01:58:38.761Z,0.00
2018-05-06T01:59:38.775Z,0.00
2018-05-06T02:00:38.798Z,0.00
2018-05-06T02:01:38.816Z,0.00
2018-05-06T02:02:38.840Z,0.00
2018-05-06T02:03:38.854Z,0.00
2018-05-06T02:04:38.868Z,0.00
2018-05-06T02:05:38.893Z,0.00
2018-05-06T02:06:38.907Z,0.00
2018-05-06T02:07:38.919Z,0.00
2018-05-06T02:08:38.945Z,0.00
2018-05-06T02:09:38.958Z,0.00
2018-05-06T02:10:38.984Z,0.00
2018-05-06T02:11:38.998Z,0.00
2018-05-06T02:12:39.011Z,0.00
2018-05-06T02:13:39.039Z,0.00
2018-05-06T02:14:39.053Z,0.00
2018-05-06T02:15:39.068Z,0.00
2018-05-06T02:16:39.091Z,0.00
2018-05-06T02:17:39.103Z,0.00
2018-05-06T02:18:39.134Z,0.00
2018-05-06T02:19:39.143Z,0.00
2018-05-06T02:20:39.157Z,0.00
2018-05-06T02:21:39.185Z,0.00
2018-05-06T02:22:39.201Z,0.00
2018-05-06T02:23:39.214Z,0.00
2018-05-06T02:24:39.244Z,0.00
2018-05-06T02:25:39.250Z,0.00
2018-05-06T02:26:39.263Z,0.00
2018-05-06T02:27:39.289Z,0.00
2018-05-06T02:28:39.303Z,0.00
2018-05-06T02:29:39.330Z,0.00
2018-05-06T02:30:39.344Z,0.00
2018-05-06T02:31:39.356Z,0.00
2018-05-06T02:32:39.396Z,0.00
2018-05-06T02:33:39.421Z,0.00
2018-05-06T02:34:39.414Z,0.00
2018-05-06T02:35:39.436Z,0.00
2018-05-06T02:36:39.448Z,0.00
2018-05-06T02:37:39.463Z,0.00
2018-05-06T02:38:39.488Z,0.00
2018-05-06T02:39:39.502Z,0.00
2018-05-06T02:40:39.528Z,0.00
2018-05-06T02:41:39.541Z,0.00
2018-05-06T02:42:39.557Z,0.00
2018-05-06T02:43:39.582Z,0.00
2018-05-06T02:44:39.594Z,0.00
2018-05-06T02:45:39.607Z,0.00
2018-05-06T02:46:39.633Z,4.00
2018-05-06T02:47:39.645Z,4.00
2018-05-06T02:48:39.660Z,0.00
2018-05-06T02:49:39.688Z,0.00
2018-05-06T02:50:39.700Z,4.00
2018-05-06T02:51:39.715Z,4.00
2018-05-06T02:52:39.745Z,4.00
2018-05-06T02:53:39.753Z,4.00
2018-05-06T02:54:39.778Z,8.00
2018-05-06T02:55:39.791Z,4.00
2018-05-06T02:56:39.804Z,4.00
2018-05-06T02:57:39.830Z,8.00
2018-05-06T02:58:39.844Z,8.00
2018-05-06T02:59:39.857Z,12.00
2018-05-06T03:00:39.884Z,12.00
2018-05-06T03:01:39.939Z,16.00
2018-05-06T03:02:39.912Z,16.00
2018-05-06T03:03:39.937Z,20.00
2018-05-06T03:04:39.952Z,24.00
2018-05-06T03:05:39.963Z,24.00
2018-05-06T03:06:39.989Z,28.00
2018-05-06T03:07:40.003Z,36.00
2018-05-06T03:08:40.016Z,36.00
2018-05-06T03:09:40.043Z,40.00
2018-05-06T03:10:40.062Z,48.00
2018-05-06T03:11:40.071Z,56.00
2018-05-06T03:12:40.099Z,60.00
2018-05-06T03:13:40.110Z,68.00
2018-05-06T03:14:40.123Z,80.00
2018-05-06T03:15:40.231Z,88.00
2018-05-06T03:16:40.163Z,100.00
2018-05-06T03:17:40.174Z,108.00
2018-05-06T03:18:40.205Z,124.00
2018-05-06T03:19:40.215Z,136.00
2018-05-06T03:20:40.228Z,148.00
2018-05-06T03:21:40.255Z,164.00
2018-05-06T03:22:40.270Z,180.00
2018-05-06T03:23:40.284Z,196.00
2018-05-06T03:24:40.309Z,216.00
2018-05-06T03:25:40.320Z,236.00
2018-05-06T03:26:40.333Z,252.00
2018-05-06T03:27:40.359Z,272.00
2018-05-06T03:28:40.381Z,296.00
2018-05-06T03:29:40.386Z,316.00
2018-05-06T03:30:40.412Z,344.00
2018-05-06T03:31:40.427Z,368.00
2018-05-06T03:32:40.439Z,392.00
2018-05-06T03:33:40.468Z,420.00
2018-05-06T03:34:40.482Z,448.00
2018-05-06T03:35:40.495Z,476.00
2018-05-06T03:36:40.520Z,504.00
2018-05-06T03:37:40.532Z,536.00
2018-05-06T03:38:40.545Z,564.00
2018-05-06T03:39:40.571Z,596.00
2018-05-06T03:40:40.585Z,632.00
2018-05-06T03:41:40.600Z,660.00
2018-05-06T03:42:40.640Z,696.00
2018-05-06T03:43:40.642Z,728.00
2018-05-06T03:44:40.653Z,760.00
2018-05-06T03:45:40.679Z,792.00
2018-05-06T03:46:40.697Z,828.00
2018-05-06T03:47:40.706Z,864.00
2018-05-06T03:48:40.733Z,900.00
2018-05-06T03:49:40.744Z,932.00
2018-05-06T03:50:40.770Z,968.00
2018-05-06T03:51:40.782Z,1004.00
2018-05-06T03:52:40.797Z,1036.00
2018-05-06T03:53:40.812Z,1072.00
2018-05-06T03:54:40.838Z,1104.00
2018-05-06T03:55:40.852Z,1144.00
2018-05-06T03:56:40.866Z,1176.00
2018-05-06T03:57:40.888Z,1208.00
2018-05-06T03:58:40.909Z,1244.00
2018-05-06T03:59:40.920Z,1276.00
2018-05-06T04:00:40.944Z,1312.00
2018-05-06T04:01:40.956Z,1344.00
2018-05-06T04:02:40.968Z,1376.00
2018-05-06T04:03:40.995Z,1408.00
2018-05-06T04:04:41.008Z,1440.00
2018-05-06T04:05:41.092Z,1472.00
2018-05-06T04:06:41.049Z,1504.00
2018-05-06T04:07:41.063Z,1532.00
2018-05-06T04:08:41.076Z,1564.00
2018-05-06T04:09:41.099Z,1596.00
2018-05-06T04:10:41.114Z,1624.00
2018-05-06T04:11:41.127Z,1656.00
2018-05-06T04:12:41.153Z,1680.00
2018-05-06T04:13:41.170Z,1712.00
2018-05-06T04:14:41.182Z,1740.00
2018-05-06T04:15:41.208Z,1768.00
2018-05-06T04:16:41.223Z,1796.00
2018-05-06T04:17:41.247Z,1824.00
2018-05-06T04:18:41.261Z,1856.00
2018-05-06T04:19:41.275Z,1884.00
2018-05-06T04:20:41.288Z,1908.00
2018-05-06T04:21:41.312Z,1936.00
2018-05-06T04:22:41.326Z,1964.00
2018-05-06T04:23:41.339Z,1988.00
2018-05-06T04:24:41.368Z,2016.00
2018-05-06T04:25:41.380Z,2044.00
2018-05-06T04:26:41.410Z,2064.00
2018-05-06T04:27:41.420Z,2096.00
2018-05-06T04:28:41.434Z,2120.00
2018-05-06T04:29:41.445Z,2144.00
2018-05-06T04:30:41.473Z,2168.00
2018-05-06T04:31:41.485Z,2192.00
2018-05-06T04:32:41.499Z,2216.00
2018-05-06T04:33:41.527Z,2240.00
2018-05-06T04:34:41.790Z,2264.00
2018-05-06T04:35:41.555Z,2292.00
2018-05-06T04:36:41.579Z,2308.00
2018-05-06T04:37:41.591Z,2332.00
2018-05-06T04:38:41.622Z,2352.00
2018-05-06T04:39:41.630Z,2376.00
2018-05-06T04:40:41.647Z,2400.00
2018-05-06T04:41:41.673Z,2424.00
2018-05-06T04:42:41.685Z,2448.00
2018-05-06T04:43:41.699Z,2468.00
2018-05-06T04:44:41.724Z,2492.00
2018-05-06T04:45:41.737Z,2516.00
2018-05-06T04:46:41.749Z,2540.00
2018-05-06T04:47:41.783Z,2564.00
2018-05-06T04:48:41.788Z,2580.00
2018-05-06T04:49:41.815Z,2604.00
2018-05-06T04:50:41.828Z,2624.00
2018-05-06T04:51:41.841Z,2644.00
2018-05-06T04:52:41.880Z,2672.00
2018-05-06T04:53:41.884Z,2704.00
2018-05-06T04:54:41.896Z,2724.00
2018-05-06T04:55:41.922Z,2736.00
2018-05-06T04:56:41.937Z,2764.00
2018-05-06T04:57:41.947Z,2780.00
2018-05-06T04:58:41.978Z,2804.00
2018-05-06T04:59:41.987Z,2820.00
2018-05-06T05:00:42.013Z,2852.00
2018-05-06T05:01:42.028Z,2860.00
2018-05-06T05:02:42.043Z,2880.00
2018-05-06T05:03:42.056Z,2900.00
2018-05-06T05:04:42.081Z,2916.00
2018-05-06T05:05:42.100Z,2940.00
2018-05-06T05:06:42.121Z,2960.00
2018-05-06T05:07:42.134Z,2988.00
2018-05-06T05:08:42.148Z,3008.00
2018-05-06T05:09:42.175Z,3032.00
2018-05-06T05:10:42.185Z,3052.00
2018-05-06T05:11:42.199Z,3076.00
2018-05-06T05:12:42.225Z,3100.00
2018-05-06T05:13:42.240Z,3120.00
2018-05-06T05:14:42.265Z,3148.00
2018-05-06T05:15:42.281Z,3168.00
2018-05-06T05:16:42.293Z,3184.00
2018-05-06T05:17:42.321Z,3204.00
2018-05-06T05:18:42.331Z,3224.00
2018-05-06T05:19:42.356Z,3244.00
2018-05-06T05:20:42.370Z,3268.00
2018-05-06T05:21:42.386Z,3288.00
2018-05-06T05:22:42.398Z,3304.00
2018-05-06T05:23:42.423Z,3324.00
2018-05-06T05:24:42.438Z,3348.00
2018-05-06T05:25:42.466Z,3360.00
2018-05-06T05:26:42.490Z,3380.00
2018-05-06T05:27:42.492Z,3400.00
2018-05-06T05:28:42.517Z,3420.00
2018-05-06T05:29:42.528Z,3464.00
2018-05-06T05:30:42.554Z,3608.00
2018-05-06T05:31:42.569Z,3804.00
2018-05-06T05:32:42.583Z,3668.00
2018-05-06T05:33:42.609Z,3756.00
2018-05-06T05:34:42.624Z,4052.00
2018-05-06T05:35:42.650Z,3796.00
2018-05-06T05:36:42.667Z,3684.00
2018-05-06T05:37:42.676Z,3704.00
2018-05-06T05:38:42.702Z,3804.00
2018-05-06T05:39:42.715Z,3684.00
2018-05-06T05:40:42.741Z,3688.00
2018-05-06T05:41:42.754Z,3844.00
2018-05-06T05:42:42.779Z,4832.00
2018-05-06T05:43:42.792Z,4208.00
2018-05-06T05:44:42.807Z,4192.00
2018-05-06T05:45:42.835Z,4124.00
2018-05-06T05:46:42.847Z,3832.00
2018-05-06T05:47:42.953Z,3944.00
2018-05-06T05:48:42.888Z,5120.00
2018-05-06T05:49:42.900Z,6652.00
2018-05-06T05:50:42.924Z,6568.00
2018-05-06T05:51:42.939Z,5512.00
2018-05-06T05:52:42.964Z,4408.00
2018-05-06T05:53:42.978Z,4420.00
2018-05-06T05:54:43.002Z,4528.00
2018-05-06T05:55:43.018Z,6424.00
2018-05-06T05:56:43.043Z,8452.00
2018-05-06T05:57:43.057Z,7248.00
2018-05-06T05:58:43.072Z,9572.00
2018-05-06T05:59:43.098Z,8100.00
2018-05-06T06:00:43.111Z,6208.00
2018-05-06T06:01:43.135Z,4584.00
2018-05-06T06:02:43.152Z,4428.00
2018-05-06T06:03:43.175Z,5388.00
2018-05-06T06:04:43.187Z,5756.00
2018-05-06T06:05:43.215Z,5148.00
2018-05-06T06:06:43.230Z,4884.00
2018-05-06T06:07:43.256Z,4848.00
2018-05-06T06:08:43.269Z,4624.00
2018-05-06T06:09:43.289Z,4500.00
2018-05-06T06:10:43.309Z,4760.00
2018-05-06T06:11:43.323Z,4440.00
2018-05-06T06:12:43.348Z,5180.00
2018-05-06T06:13:43.360Z,13284.00
2018-05-06T06:14:43.385Z,27200.00
2018-05-06T06:15:43.412Z,37056.00
2018-05-06T06:16:43.424Z,33920.00
2018-05-06T06:17:43.441Z,32672.00
2018-05-06T06:18:43.471Z,38336.00
2018-05-06T06:19:43.485Z,33600.00
2018-05-06T06:21:43.532Z,28352.00
2018-05-06T06:22:43.550Z,39680.00
2018-05-06T06:23:43.569Z,44096.00
2018-05-06T06:24:43.583Z,43168.00
2018-05-06T06:25:43.609Z,40576.00
2018-05-06T06:26:43.638Z,40032.00
2018-05-06T06:27:43.652Z,38080.00
2018-05-06T06:28:43.674Z,38016.00
2018-05-06T06:29:43.701Z,40480.00
2018-05-06T06:30:43.715Z,36288.00
2018-05-06T06:31:43.742Z,33024.00
2018-05-06T06:32:43.767Z,35040.00
2018-05-06T06:33:43.793Z,32608.00
2018-05-06T06:34:43.805Z,27648.00
2018-05-06T06:35:43.831Z,26496.00
2018-05-06T06:36:44.207Z,26624.00
2018-05-06T06:37:43.883Z,27680.00
2018-05-06T06:38:43.911Z,29376.00
2018-05-06T06:39:43.924Z,31776.00
2018-05-06T06:40:43.950Z,33120.00
2018-05-06T06:41:43.975Z,34240.00
2018-05-06T06:42:44.000Z,38240.00
2018-05-06T06:43:44.026Z,38976.00
2018-05-06T06:44:44.054Z,39200.00
2018-05-06T06:45:44.079Z,38656.00
2018-05-06T06:46:44.109Z,39904.00
2018-05-06T06:47:44.132Z,41568.00
2018-05-06T06:48:44.160Z,42176.00
2018-05-06T06:49:44.183Z,43392.00
2018-05-06T06:50:44.558Z,43808.00
2018-05-06T06:51:44.235Z,43584.00
2018-05-06T06:52:44.260Z,40704.00
2018-05-06T06:53:44.285Z,39584.00
2018-05-06T06:54:44.314Z,44480.00
2018-05-06T06:55:44.383Z,46656.00
2018-05-06T06:56:44.368Z,47040.00
2018-05-06T06:57:44.392Z,47872.00
2018-05-06T06:58:44.419Z,46752.00
2018-05-06T06:59:44.471Z,46784.00
2018-05-06T07:00:44.469Z,47968.00
2018-05-06T07:01:44.495Z,46912.00
2018-05-06T07:02:44.520Z,49984.00
2018-05-06T07:03:44.545Z,53216.00
2018-05-06T07:04:44.787Z,55328.00
2018-05-06T07:05:44.612Z,54880.00
2018-05-06T07:06:44.639Z,49376.00
2018-05-06T07:07:44.665Z,47776.00
2018-05-06T07:08:44.690Z,52160.00
2018-05-06T07:09:44.919Z,56896.00
2018-05-06T07:10:44.744Z,54976.00
2018-05-06T07:11:44.778Z,55520.00
2018-05-06T07:12:44.804Z,57216.00
2018-05-06T07:13:44.830Z,56256.00
2018-05-06T07:15:44.882Z,56576.00
2018-05-06T07:16:44.921Z,54720.00
2018-05-06T07:17:44.947Z,54400.00
2018-05-06T07:18:44.972Z,54976.00
2018-05-06T07:19:45.001Z,56128.00
2018-05-06T07:20:45.039Z,57248.00
2018-05-06T07:21:45.065Z,58048.00
2018-05-06T07:22:45.091Z,60608.00
2018-05-06T07:23:45.118Z,61056.00
2018-05-06T07:24:45.154Z,61280.00
2018-05-06T07:25:45.184Z,64736.00
2018-05-06T07:26:45.206Z,64800.00
2018-05-06T07:27:45.246Z,61824.00
2018-05-06T07:28:45.271Z,54176.00
2018-05-06T07:29:45.297Z,58432.00
2018-05-06T07:30:45.337Z,65920.00
2018-05-06T07:31:45.363Z,61152.00
2018-05-06T07:32:45.389Z,56544.00
2018-05-06T07:33:45.426Z,61984.00
2018-05-06T07:34:45.453Z,64512.00
2018-05-06T07:35:45.543Z,60960.00
2018-05-06T07:36:45.515Z,60672.00
2018-05-06T07:37:45.744Z,62144.00
2018-05-06T07:38:45.578Z,66048.00
2018-05-06T07:39:45.608Z,67776.00
2018-05-06T07:40:45.647Z,67552.00
2018-05-06T07:41:45.672Z,66368.00
2018-05-06T07:42:45.698Z,70272.00
2018-05-06T07:43:45.734Z,70656.00
2018-05-06T07:44:45.761Z,71232.00
2018-05-06T07:45:45.799Z,69568.00
2018-05-06T07:46:45.827Z,64736.00
2018-05-06T07:47:45.852Z,65312.00
2018-05-06T07:48:45.889Z,68256.00
2018-05-06T07:49:45.928Z,69568.00
2018-05-06T07:50:45.956Z,70720.00
2018-05-06T07:51:45.982Z,71776.00
2018-05-06T07:52:46.022Z,72448.00
2018-05-06T07:53:46.046Z,72704.00
2018-05-06T07:54:46.085Z,70720.00
2018-05-06T07:55:46.109Z,63168.00
2018-05-06T07:56:46.147Z,62624.00
2018-05-06T07:57:46.173Z,69792.00
2018-05-06T07:58:46.230Z,67744.00
2018-05-06T07:59:46.241Z,62208.00
2018-05-06T08:00:46.280Z,60320.00
2018-05-06T08:01:46.317Z,62048.00
2018-05-06T08:02:46.343Z,65728.00
2018-05-06T08:03:46.381Z,67040.00
2018-05-06T08:04:46.407Z,68384.00
2018-05-06T08:05:46.446Z,72832.00
2018-05-06T08:06:46.471Z,73472.00
2018-05-06T08:07:46.521Z,70048.00
2018-05-06T08:08:46.549Z,69536.00
2018-05-06T08:09:46.573Z,72192.00
2018-05-06T08:10:46.659Z,71360.00
2018-05-06T08:11:46.640Z,60160.00
2018-05-06T08:12:46.678Z,29120.00
2018-05-06T08:13:46.715Z,6628.00
2018-05-06T08:14:46.742Z,6040.00
2018-05-06T08:15:46.779Z,6040.00
2018-05-06T08:16:46.806Z,6028.00
2018-05-06T08:17:46.844Z,6024.00
2018-05-06T08:18:46.869Z,5996.00
2018-05-06T08:19:46.908Z,5932.00
2018-05-06T08:20:46.933Z,5812.00
2018-05-06T08:21:46.999Z,5676.00
2018-05-06T08:22:47.011Z,5660.00
2018-05-06T08:23:47.025Z,5760.00
2018-05-06T08:24:47.053Z,5884.00
2018-05-06T08:25:47.091Z,5928.00
2018-05-06T08:26:47.116Z,5944.00
2018-05-06T08:27:47.142Z,5944.00
2018-05-06T08:28:47.167Z,5936.00
2018-05-06T08:30:47.231Z,5904.00
2018-05-06T08:31:47.258Z,5864.00
2018-05-06T08:33:47.312Z,5836.00
2018-05-06T08:34:47.336Z,5828.00
2018-05-06T08:35:47.362Z,5832.00
2018-05-06T08:36:47.390Z,5832.00
2018-05-06T08:37:47.419Z,5804.00
2018-05-06T08:38:47.440Z,5796.00
2018-05-06T08:39:47.467Z,5832.00
2018-05-06T08:40:47.493Z,5892.00
2018-05-06T08:41:47.519Z,5936.00
2018-05-06T08:42:47.542Z,5972.00
2018-05-06T08:43:47.569Z,6004.00
2018-05-06T08:44:47.593Z,6044.00
2018-05-06T08:45:47.696Z,6104.00
2018-05-06T08:46:47.648Z,6148.00
2018-05-06T08:47:47.674Z,6164.00
2018-05-06T08:48:47.700Z,6196.00
2018-05-06T08:49:47.725Z,6228.00
2018-05-06T08:50:47.750Z,6248.00
2018-05-06T08:51:47.776Z,6264.00
2018-05-06T08:52:47.803Z,6260.00
2018-05-06T08:53:47.830Z,6264.00
2018-05-06T08:54:47.856Z,6264.00
2018-05-06T08:55:47.882Z,6252.00
2018-05-06T08:56:47.924Z,6244.00
2018-05-06T08:57:47.933Z,6236.00
2018-05-06T08:58:47.958Z,6244.00
2018-05-06T08:59:47.983Z,6272.00
2018-05-06T09:00:48.010Z,6308.00
2018-05-06T09:01:48.026Z,6348.00
2018-05-06T09:02:48.056Z,6376.00
2018-05-06T09:03:48.082Z,6404.00
2018-05-06T09:04:48.105Z,6420.00
2018-05-06T09:05:48.127Z,6436.00
2018-05-06T09:06:48.154Z,6448.00
2018-05-06T09:07:48.180Z,6460.00
2018-05-06T09:08:48.206Z,6472.00
2018-05-06T09:09:48.233Z,6480.00
2018-05-06T09:10:48.245Z,6504.00
2018-05-06T09:11:48.270Z,6532.00
2018-05-06T09:12:48.298Z,6584.00
2018-05-06T09:13:48.324Z,6632.00
2018-05-06T09:14:48.354Z,6680.00
2018-05-06T09:15:48.377Z,6716.00
2018-05-06T09:16:48.402Z,6712.00
2018-05-06T09:17:48.426Z,6524.00
2018-05-06T09:18:48.466Z,6324.00
2018-05-06T09:19:48.518Z,6364.00
2018-05-06T09:20:48.492Z,6612.00
2018-05-06T09:21:48.521Z,6812.00
2018-05-06T09:22:48.546Z,7000.00
2018-05-06T09:23:48.573Z,7180.00
2018-05-06T09:24:48.598Z,7292.00
2018-05-06T09:25:48.624Z,7432.00
2018-05-06T09:26:48.650Z,7596.00
2018-05-06T09:27:48.676Z,7720.00
2018-05-06T09:28:48.702Z,7844.00
2018-05-06T09:29:48.713Z,7960.00
2018-05-06T09:30:48.739Z,8120.00
2018-05-06T09:31:48.766Z,8280.00
2018-05-06T09:32:48.792Z,8452.00
2018-05-06T09:33:48.819Z,8648.00
2018-05-06T09:34:48.845Z,8856.00
2018-05-06T09:35:48.870Z,9120.00
2018-05-06T09:36:48.897Z,10084.00
2018-05-06T09:37:48.946Z,11360.00
2018-05-06T09:38:48.947Z,12624.00
2018-05-06T09:39:48.961Z,15236.00
2018-05-06T09:40:48.987Z,17396.00
2018-05-06T09:41:49.013Z,21312.00
2018-05-06T09:42:49.041Z,25312.00
2018-05-06T09:43:49.065Z,31776.00
2018-05-06T09:44:49.092Z,53984.00
2018-05-06T09:45:49.120Z,81728.00
2018-05-06T09:46:49.144Z,94048.00
2018-05-06T09:47:49.245Z,82784.00
2018-05-06T09:48:49.198Z,52128.00
2018-05-06T09:49:49.226Z,30400.00
2018-05-06T09:50:49.247Z,54336.00
2018-05-06T09:51:49.272Z,87776.00
2018-05-06T09:52:49.299Z,99712.00
2018-05-06T09:53:49.407Z,98336.00
2018-05-06T09:54:49.353Z,71424.00
2018-05-06T09:55:49.378Z,37920.00
2018-05-06T09:56:49.416Z,36768.00
2018-05-06T09:57:49.440Z,69600.00
2018-05-06T09:58:49.466Z,91936.00
2018-05-06T09:59:49.842Z,90848.00
2018-05-06T10:00:49.531Z,66240.00
2018-05-06T10:01:49.560Z,29728.00
2018-05-06T10:02:49.585Z,9380.00
2018-05-06T10:03:49.623Z,15348.00
2018-05-06T10:04:49.649Z,44928.00
2018-05-06T10:05:49.743Z,77760.00
2018-05-06T10:06:49.712Z,91776.00
2018-05-06T10:07:49.738Z,94944.00
2018-05-06T10:08:49.764Z,92288.00
2018-05-06T10:09:49.803Z,89152.00
2018-05-06T10:10:49.830Z,84416.00
2018-05-06T10:11:49.868Z,85120.00
2018-05-06T10:12:49.895Z,87488.00
2018-05-06T10:13:49.921Z,90272.00
2018-05-06T10:14:49.959Z,92736.00
2018-05-06T10:15:50.017Z,93760.00
2018-05-06T10:16:50.024Z,90432.00
2018-05-06T10:17:50.059Z,91456.00
2018-05-06T10:18:50.087Z,97536.00
2018-05-06T10:19:50.125Z,97760.00
2018-05-06T10:20:50.163Z,96640.00
2018-05-06T10:22:50.432Z,82656.00
2018-05-06T10:23:50.269Z,83968.00
2018-05-06T10:24:50.306Z,91520.00
2018-05-06T10:25:50.333Z,96096.00
2018-05-06T10:26:50.375Z,93856.00
2018-05-06T10:27:50.407Z,91616.00
2018-05-06T10:28:50.445Z,88320.00
2018-05-06T10:29:50.487Z,89312.00
2018-05-06T10:30:50.522Z,91328.00
2018-05-06T10:31:50.566Z,91424.00
2018-05-06T10:32:50.599Z,92352.00
2018-05-06T10:33:50.637Z,94272.00
2018-05-06T10:34:50.666Z,95296.00
2018-05-06T10:35:50.704Z,93888.00
2018-05-06T10:36:50.744Z,91328.00
2018-05-06T10:37:50.781Z,89504.00
2018-05-06T10:38:50.818Z,87904.00
2018-05-06T10:39:50.856Z,90304.00
2018-05-06T10:40:50.897Z,90432.00
2018-05-06T10:41:50.933Z,91552.00
2018-05-06T10:42:50.989Z,94304.00
2018-05-06T10:43:51.025Z,93760.00
2018-05-06T10:44:51.063Z,91904.00
2018-05-06T10:45:51.305Z,87520.00
2018-05-06T10:46:51.141Z,83072.00
2018-05-06T10:47:51.182Z,82528.00
2018-05-06T10:48:51.233Z,86400.00
2018-05-06T10:51:51.332Z,94848.00
2018-05-06T10:52:51.382Z,100352.00
2018-05-06T10:53:51.419Z,93184.00
2018-05-06T10:54:51.462Z,100928.00
2018-05-06T10:55:51.496Z,98464.00
2018-05-06T10:56:51.550Z,96128.00
2018-05-06T10:57:51.610Z,96288.00
2018-05-06T10:58:51.614Z,91232.00
2018-05-06T10:59:51.666Z,93600.00
2018-05-06T11:00:52.050Z,90336.00
2018-05-06T11:01:51.740Z,92160.00
2018-05-06T11:02:51.778Z,97952.00
2018-05-06T11:03:51.818Z,95392.00
2018-05-06T11:04:51.871Z,96768.00
2018-05-06T11:05:51.908Z,100672.00
2018-05-06T11:06:51.958Z,96032.00
2018-05-06T11:07:51.985Z,97824.00
2018-05-06T11:08:52.024Z,98080.00
2018-05-06T11:09:52.074Z,97152.00
2018-05-06T11:10:52.113Z,93504.00
2018-05-06T11:11:52.150Z,93728.00
2018-05-06T11:12:52.190Z,94048.00
2018-05-06T11:13:52.240Z,95264.00
2018-05-06T11:14:52.285Z,94752.00
2018-05-06T11:16:52.369Z,94144.00
2018-05-06T11:17:52.430Z,92192.00
2018-05-06T11:18:52.443Z,90880.00
2018-05-06T11:19:52.482Z,94304.00
2018-05-06T11:20:52.520Z,94560.00
2018-05-06T11:21:52.559Z,94592.00
2018-05-06T11:22:52.610Z,97504.00
2018-05-06T11:23:52.661Z,97888.00
2018-05-06T11:24:52.692Z,93728.00
2018-05-06T11:26:53.133Z,92896.00
2018-05-06T11:27:52.817Z,94944.00
2018-05-06T11:28:52.855Z,96352.00
2018-05-06T11:29:52.895Z,94240.00
2018-05-06T11:30:52.932Z,90720.00
2018-05-06T11:31:52.982Z,90880.00
2018-05-06T11:32:53.020Z,95488.00
2018-05-06T11:33:53.060Z,97632.00
2018-05-06T11:34:53.114Z,95712.00
2018-05-06T11:35:53.150Z,90432.00
2018-05-06T11:36:53.188Z,85024.00
2018-05-06T11:37:53.229Z,83552.00
2018-05-06T11:38:53.265Z,80928.00
2018-05-06T11:39:53.317Z,83232.00
2018-05-06T11:40:53.397Z,85184.00
2018-05-06T11:41:53.393Z,83616.00
2018-05-06T11:42:53.430Z,84320.00
2018-05-06T11:43:53.480Z,84544.00
2018-05-06T11:44:53.518Z,84640.00
2018-05-06T11:45:53.558Z,84512.00
2018-05-06T11:46:53.601Z,87232.00
2018-05-06T11:47:53.648Z,86176.00
2018-05-06T11:48:53.688Z,85408.00
2018-05-06T11:49:53.725Z,81824.00
2018-05-06T11:50:53.825Z,79872.00
2018-05-06T11:51:53.814Z,84064.00
2018-05-06T11:52:53.853Z,84128.00
2018-05-06T11:53:53.897Z,80128.00
2018-05-06T11:54:53.929Z,76512.00
2018-05-06T11:55:53.984Z,72608.00
2018-05-06T11:56:54.019Z,73952.00
2018-05-06T11:57:54.071Z,82464.00
2018-05-06T11:58:54.097Z,87904.00
2018-05-06T11:59:54.148Z,89120.00
2018-05-06T12:00:54.186Z,90880.00
2018-05-06T12:01:54.226Z,93344.00
2018-05-06T12:02:54.263Z,93664.00
2018-05-06T12:03:54.312Z,92672.00
2018-05-06T12:04:54.355Z,92832.00
2018-05-06T12:05:54.388Z,92224.00
2018-05-06T12:06:54.633Z,90816.00
2018-05-06T12:07:54.470Z,92480.00
2018-05-06T12:08:54.519Z,94752.00
2018-05-06T12:09:54.637Z,94272.00
2018-05-06T12:10:54.596Z,95744.00
2018-05-06T12:11:54.636Z,94560.00
2018-05-06T12:12:54.688Z,92608.00
2018-05-06T12:13:54.728Z,93216.00
2018-05-06T12:14:54.763Z,93696.00
2018-05-06T12:15:54.810Z,91648.00
2018-05-06T12:16:54.849Z,88128.00
2018-05-06T12:17:54.889Z,85408.00
2018-05-06T12:18:54.929Z,89376.00
2018-05-06T12:19:54.968Z,92896.00
2018-05-06T12:20:55.019Z,97472.00
2018-05-06T12:21:55.099Z,96320.00
2018-05-06T12:22:55.094Z,92000.00
2018-05-06T12:23:55.190Z,87008.00
2018-05-06T12:24:55.171Z,88704.00